Time;durP1;ratioP1;P1;durP2;ratioP2;P2;SDS_P1;SDS_P2;PMS_P1;PMS_P2;Temp;Humidity;BMP_temperature;BMP_pressure;BME280_temperature;BME280_humidity;BME280_pressure;Samples;Min_cycle;Max_cycle;Signal;HPM_P1;HPM_P2
2023/04/18 00:00:56;;;;;;;10.90;4.93;;;;;;;;;;5054000;28;20219;-89
2023/04/18 00:03:25;;;;;;;2.33;0.93;;;;;;;;;;5054194;28;20583;-90
2023/04/18 00:05:56;;;;;;;1.60;1.30;;;;;;;;;;5054364;28;20242;-90
2023/04/18 00:08:24;;;;;;;1.40;1.30;;;;;;;;;;5053387;28;20410;-90
2023/04/18 00:10:53;;;;;;;1.70;1.60;;;;;;;;;;5055329;28;20216;-90
2023/04/18 00:13:27;;;;;;;1.80;1.00;;;;;;;;;;5055583;28;20309;-89
2023/04/18 00:16:01;;;;;;;1.50;1.40;;;;;;;;;;5054036;28;20260;-89
2023/04/18 00:18:30;;;;;;;1.17;1.07;;;;;;;;;;5061023;28;20219;-88
2023/04/18 00:20:58;;;;;;;3.43;1.40;;;;;;;;;;5062657;28;20224;-89
2023/04/18 00:23:28;;;;;;;1.00;1.00;;;;;;;;;;5063699;28;20211;-89
2023/04/18 00:26:02;;;;;;;0.80;0.80;;;;;;;;;;5064769;28;20244;-89
2023/04/18 00:28:29;;;;;;;0.90;0.90;;;;;;;;;;5062001;28;20274;-90
2023/04/18 00:31:11;;;;;;;1.53;0.93;;;;;;;;;;5058632;28;20212;-90
2023/04/18 00:33:40;;;;;;;1.40;1.30;;;;;;;;;;4954417;28;20237;-90
2023/04/18 00:36:11;;;;;;;1.20;1.10;;;;;;;;;;4953229;28;20602;-90
2023/04/18 00:38:40;;;;;;;1.27;1.23;;;;;;;;;;5053927;28;20687;-88
2023/04/18 00:41:09;;;;;;;1.80;1.13;;;;;;;;;;5054810;28;20226;-89
2023/04/18 00:46:28;;;;;;;1.07;1.07;;;;;;;;;;5053312;28;20242;-88
2023/04/18 00:48:59;;;;;;;3.77;1.50;;;;;;;;;;5054846;28;20240;-88
2023/04/18 00:51:27;;;;;;;1.27;1.17;;;;;;;;;;5054185;28;20203;-89
2023/04/18 00:53:58;;;;;;;0.77;0.77;;;;;;;;;;5054442;28;20201;-89
2023/04/18 00:56:28;;;;;;;1.47;1.37;;;;;;;;;;5054237;28;20210;-88
2023/04/18 00:58:58;;;;;;;1.10;1.10;;;;;;;;;;5053905;28;20200;-90
2023/04/18 01:01:29;;;;;;;1.20;1.20;;;;;;;;;;5053304;28;20235;-88
2023/04/18 01:03:59;;;;;;;2.70;1.47;;;;;;;;;;5053939;28;20199;-89
2023/04/18 01:06:28;;;;;;;1.47;0.70;;;;;;;;;;5052306;28;20687;-89
2023/04/18 01:09:06;;;;;;;1.57;1.23;;;;;;;;;;5054441;28;20231;-87
2023/04/18 01:11:36;;;;;;;1.53;1.37;;;;;;;;;;5054011;28;20230;-90
2023/04/18 01:14:04;;;;;;;1.13;1.03;;;;;;;;;;5053099;28;20196;-89
2023/04/18 01:16:33;;;;;;;3.93;1.60;;;;;;;;;;5053557;28;20210;-90
2023/04/18 01:19:05;;;;;;;1.97;1.47;;;;;;;;;;5052697;28;20207;-90
2023/04/18 01:21:35;;;;;;;1.97;1.20;;;;;;;;;;5053066;28;20192;-89
2023/04/18 01:24:12;;;;;;;2.40;1.47;;;;;;;;;;5055544;28;20196;-90
2023/04/18 01:26:39;;;;;;;2.63;1.27;;;;;;;;;;5059123;28;20211;-88
2023/04/18 01:29:07;;;;;;;3.33;1.50;;;;;;;;;;5059745;28;20586;-89
2023/04/18 01:31:35;;;;;;;5.00;1.93;;;;;;;;;;5062685;28;20205;-91
2023/04/18 01:34:04;;;;;;;1.77;1.43;;;;;;;;;;5053818;28;20195;-89
2023/04/18 01:36:41;;;;;;;3.07;2.50;;;;;;;;;;4952639;28;20605;-90
2023/04/18 01:39:11;;;;;;;1.63;1.53;;;;;;;;;;5051802;28;20589;-90
2023/04/18 01:41:39;;;;;;;1.83;1.73;;;;;;;;;;5054107;28;20188;-89
2023/04/18 01:44:09;;;;;;;1.77;1.57;;;;;;;;;;5053507;28;20205;-89
2023/04/18 01:46:37;;;;;;;3.40;1.40;;;;;;;;;;5060026;28;20215;-89
2023/04/18 01:49:12;;;;;;;1.70;1.60;;;;;;;;;;5055579;28;20271;-89
2023/04/18 01:51:44;;;;;;;2.00;1.90;;;;;;;;;;5052879;28;20289;-88
2023/04/18 01:54:19;;;;;;;3.63;2.30;;;;;;;;;;5052182;28;20635;-89
2023/04/18 01:56:49;;;;;;;4.47;1.80;;;;;;;;;;5055591;28;20194;-90
2023/04/18 01:59:17;;;;;;;2.77;1.53;;;;;;;;;;5054792;28;20222;-88
2023/04/18 02:01:48;;;;;;;3.67;1.60;;;;;;;;;;5053952;28;20203;-90
2023/04/18 02:04:18;;;;;;;4.47;2.43;;;;;;;;;;5052311;28;20202;-90
2023/04/18 02:06:55;;;;;;;2.90;1.47;;;;;;;;;;4952944;28;20234;-90
2023/04/18 02:12:17;;;;;;;3.30;2.10;;;;;;;;;;5053414;28;20215;-90
2023/04/18 02:14:51;;;;;;;5.43;2.30;;;;;;;;;;5052294;28;20218;-90
2023/04/18 02:17:25;;;;;;;2.30;2.13;;;;;;;;;;5053170;28;20677;-90
2023/04/18 02:19:58;;;;;;;3.47;1.93;;;;;;;;;;5053066;28;20199;-90
2023/04/18 02:22:45;;;;;;;1.97;1.63;;;;;;;;;;5052920;28;20227;-91
2023/04/18 02:25:22;;;;;;;2.43;1.83;;;;;;;;;;5065498;28;20262;-90
2023/04/18 02:27:56;;;;;;;1.47;1.37;;;;;;;;;;5070386;28;20205;-90
2023/04/18 02:30:30;;;;;;;2.20;2.07;;;;;;;;;;5071132;28;20196;-87
2023/04/18 02:33:02;;;;;;;4.07;2.07;;;;;;;;;;5065206;28;20199;-88
2023/04/18 02:35:30;;;;;;;1.37;1.27;;;;;;;;;;5070883;28;20210;-91
2023/04/18 02:37:58;;;;;;;2.30;1.20;;;;;;;;;;5072061;28;20200;-91
2023/04/18 02:43:26;;;;;;;2.30;1.73;;;;;;;;;;5313332;22;20686;-90
2023/04/18 02:45:57;;;;;;;2.27;1.03;;;;;;;;;;5054414;28;20583;-90
2023/04/18 02:48:25;;;;;;;0.80;0.80;;;;;;;;;;5052837;28;20230;-89
2023/04/18 02:50:56;;;;;;;1.73;1.63;;;;;;;;;;5050948;28;20200;-89
2023/04/18 02:53:27;;;;;;;2.00;1.67;;;;;;;;;;5052676;28;20213;-90
2023/04/18 02:55:55;;;;;;;2.57;2.33;;;;;;;;;;5052974;28;20367;-90
2023/04/18 02:58:27;;;;;;;2.83;1.97;;;;;;;;;;5051208;28;20199;-90
2023/04/18 03:00:56;;;;;;;4.07;1.57;;;;;;;;;;5051099;28;20289;-91
2023/04/18 03:03:30;;;;;;;3.20;2.07;;;;;;;;;;5050069;28;20199;-90
2023/04/18 03:05:59;;;;;;;2.83;1.60;;;;;;;;;;5052493;28;20230;-90
2023/04/18 03:08:33;;;;;;;2.23;2.13;;;;;;;;;;5052502;28;20286;-90
2023/04/18 03:11:03;;;;;;;2.73;2.43;;;;;;;;;;5051409;28;20246;-90
2023/04/18 03:13:44;;;;;;;3.13;2.83;;;;;;;;;;5051095;28;20654;-91
2023/04/18 03:16:19;;;;;;;3.87;2.03;;;;;;;;;;5051017;28;20195;-90
2023/04/18 03:18:51;;;;;;;2.87;2.33;;;;;;;;;;5052893;28;20206;-91
2023/04/18 03:21:19;;;;;;;6.90;3.10;;;;;;;;;;5053505;28;20306;-89
2023/04/18 03:23:47;;;;;;;5.57;3.27;;;;;;;;;;5051575;28;20191;-91
2023/04/18 03:26:19;;;;;;;3.47;2.80;;;;;;;;;;5052535;28;20313;-89
2023/04/18 03:28:58;;;;;;;5.20;3.93;;;;;;;;;;5051039;28;20222;-88
2023/04/18 03:31:25;;;;;;;2.60;2.27;;;;;;;;;;5050693;28;20278;-88
2023/04/18 03:33:59;;;;;;;4.80;2.77;;;;;;;;;;5052287;28;20728;-89
2023/04/18 03:36:46;;;;;;;5.43;3.27;;;;;;;;;;5052882;28;20191;-90
2023/04/18 03:39:20;;;;;;;3.07;2.17;;;;;;;;;;5054439;28;20680;-89
2023/04/18 03:42:00;;;;;;;2.57;2.17;;;;;;;;;;5054569;28;20261;-90
2023/04/18 03:44:38;;;;;;;3.13;1.87;;;;;;;;;;5057799;28;20205;-90
2023/04/18 03:47:07;;;;;;;3.40;2.23;;;;;;;;;;5056938;28;20691;-90
2023/04/18 03:49:39;;;;;;;4.43;2.73;;;;;;;;;;5055561;28;20282;-90
2023/04/18 03:52:09;;;;;;;2.80;2.23;;;;;;;;;;5055994;28;20207;-90
2023/04/18 03:54:47;;;;;;;4.10;2.53;;;;;;;;;;5056195;28;20188;-89
2023/04/18 03:57:16;;;;;;;2.03;1.93;;;;;;;;;;5055071;28;20665;-91
2023/04/18 03:59:49;;;;;;;2.57;2.17;;;;;;;;;;5037677;28;20256;-88
2023/04/18 04:02:17;;;;;;;3.07;2.57;;;;;;;;;;5055213;28;20294;-88
2023/04/18 04:05:02;;;;;;;1.77;1.67;;;;;;;;;;5054759;28;20340;-90
2023/04/18 04:10:40;;;;;;;;;;;;;;;;;;;;;
2023/04/18 04:13:08;;;;;;;3.53;2.50;;;;;;;;;;4954298;28;20209;-90
2023/04/18 04:15:42;;;;;;;10.27;3.13;;;;;;;;;;4957979;28;20206;-89
2023/04/18 04:18:16;;;;;;;2.00;1.90;;;;;;;;;;4961789;28;20560;-90
2023/04/18 04:20:55;;;;;;;2.97;2.47;;;;;;;;;;4984036;28;20682;-89
2023/04/18 04:23:36;;;;;;;2.67;2.23;;;;;;;;;;4958132;28;20227;-89
2023/04/18 04:26:09;;;;;;;9.07;2.80;;;;;;;;;;4956696;28;20230;-89
2023/04/18 04:28:38;;;;;;;2.77;2.50;;;;;;;;;;4987941;28;20286;-91
2023/04/18 04:31:24;;;;;;;2.37;1.97;;;;;;;;;;4954993;28;20203;-91
2023/04/18 04:34:08;;;;;;;2.67;2.17;;;;;;;;;;4965266;28;20234;-93
2023/04/18 04:40:09;;;;;;;3.70;3.10;;;;;;;;;;5146538;22;20219;-94
2023/04/18 04:45:51;;;;;;;4.70;2.33;;;;;;;;;;5037598;28;20217;-94
2023/04/18 04:51:50;;;;;;;3.83;2.63;;;;;;;;;;5053593;28;20203;-94
2023/04/18 04:54:43;;;;;;;4.57;2.73;;;;;;;;;;5067593;28;20214;-95
2023/04/18 05:09:15;;;;;;;2.73;2.50;;;;;;;;;;4966269;28;20217;-95
2023/04/18 06:00:42;;;;;;;3.77;3.13;;;;;;;;;;5029140;28;20201;-95
2023/04/18 07:00:43;;;;;;;4.30;2.70;;;;;;;;;;6231123;23;20689;-88
2023/04/18 07:05:58;;;;;;;3.10;2.80;;;;;;;;;;6228279;23;20264;-91
2023/04/18 07:08:35;;;;;;;3.00;2.50;;;;;;;;;;6226648;23;20179;-90
2023/04/18 07:11:40;;;;;;;2.93;2.37;;;;;;;;;;6224241;23;20192;-88
2023/04/18 07:17:51;;;;;;;2.27;2.10;;;;;;;;;;6224057;23;20196;-89
2023/04/18 07:21:07;;;;;;;;;;;;;;;;;;;;;
2023/04/18 07:29:59;;;;;;;4.57;2.43;;;;;;;;;;6085239;23;20577;-90
2023/04/18 07:35:41;;;;;;;;;;;;;;;;;;;;;
2023/04/18 07:38:27;;;;;;;4.73;2.90;;;;;;;;;;6216832;23;20533;-90
2023/04/18 07:44:25;;;;;;;;;;;;;;;;;;;;;
2023/04/18 07:46:58;;;;;;;2.53;2.27;;;;;;;;;;6217518;23;20344;-89
2023/04/18 07:49:33;;;;;;;2.23;2.13;;;;;;;;;;6218318;23;20171;-89
2023/04/18 07:52:03;;;;;;;3.83;2.00;;;;;;;;;;6216468;23;20755;-89
2023/04/18 07:54:36;;;;;;;4.07;2.67;;;;;;;;;;6214427;23;20664;-88
2023/04/18 07:57:11;;;;;;;2.17;1.70;;;;;;;;;;6216839;23;20205;-88
2023/04/18 08:00:11;;;;;;;1.80;1.70;;;;;;;;;;6216130;23;20566;-89
2023/04/18 08:02:59;;;;;;;2.67;1.73;;;;;;;;;;6154081;23;20272;-88
2023/04/18 08:05:54;;;;;;;1.30;1.20;;;;;;;;;;6150376;23;20184;-88
2023/04/18 08:08:31;;;;;;;1.87;1.77;;;;;;;;;;6210206;23;20541;-88
2023/04/18 08:11:05;;;;;;;1.97;1.53;;;;;;;;;;6214698;23;20551;-89
2023/04/18 08:13:35;;;;;;;1.60;1.50;;;;;;;;;;6216247;23;20183;-89
2023/04/18 08:16:15;;;;;;;1.97;0.93;;;;;;;;;;6216908;23;20180;-89
2023/04/18 08:21:26;;;;;;;1.80;1.73;;;;;;;;;;6213987;23;20274;-88
2023/04/18 08:24:06;;;;;;;1.27;1.17;;;;;;;;;;6214948;23;20248;-89
2023/04/18 08:26:36;;;;;;;1.57;1.47;;;;;;;;;;6214304;23;20169;-88
2023/04/18 08:29:05;;;;;;;1.50;1.40;;;;;;;;;;6215244;23;20161;-90
2023/04/18 08:31:39;;;;;;;1.43;1.33;;;;;;;;;;6214439;23;20174;-89
2023/04/18 08:34:07;;;;;;;1.77;1.60;;;;;;;;;;6214401;23;20205;-87
2023/04/18 08:39:25;;;;;;;3.13;1.60;;;;;;;;;;6213637;23;20185;-88
2023/04/18 08:41:58;;;;;;;3.97;2.20;;;;;;;;;;6222344;23;20219;-89
2023/04/18 08:44:29;;;;;;;1.35;1.25;;;;;;;;;;6214965;23;20169;-88
2023/04/18 08:46:59;;;;;;;2.25;1.45;;;;;;;;;;6214554;23;20171;-89
2023/04/18 08:49:34;;;;;;;1.40;1.40;;;;;;;;;;6214173;23;20260;-89
2023/04/18 08:52:03;;;;;;;1.65;1.55;;;;;;;;;;6213657;23;20174;-90
2023/04/18 08:54:37;;;;;;;2.38;2.15;;;;;;;;;;6214366;23;20228;-87
2023/04/18 08:57:11;;;;;;;1.60;1.35;;;;;;;;;;6214532;23;20198;-89
2023/04/18 08:59:40;;;;;;;0.90;0.90;;;;;;;;;;6214386;23;20690;-89
2023/04/18 09:02:10;;;;;;;2.08;1.35;;;;;;;;;;6215979;23;20679;-88
2023/04/18 09:04:51;;;;;;;1.48;1.38;;;;;;;;;;6216055;23;20178;-89
2023/04/18 09:07:19;;;;;;;1.63;1.42;;;;;;;;;;6223304;23;20185;-87
2023/04/18 09:10:12;;;;;;;2.53;1.65;;;;;;;;;;6233698;23;20193;-89
2023/04/18 09:12:48;;;;;;;1.15;1.13;;;;;;;;;;6231151;23;20170;-86
2023/04/18 09:15:24;;;;;;;1.15;1.00;;;;;;;;;;6225662;23;20170;-89
2023/04/18 09:17:56;;;;;;;0.88;0.88;;;;;;;;;;6220295;23;20238;-89
2023/04/18 09:20:33;;;;;;;1.30;1.30;;;;;;;;;;6224204;23;20174;-89
2023/04/18 09:23:05;;;;;;;1.48;1.13;;;;;;;;;;6236940;23;20208;-88
2023/04/18 09:25:40;;;;;;;1.67;1.58;;;;;;;;;;6217876;23;20165;-88
2023/04/18 09:28:25;;;;;;;1.50;1.40;;;;;;;;;;6213241;23;20176;-87
2023/04/18 09:30:54;;;;;;;1.77;1.58;;;;;;;;;;6212948;23;20696;-89
2023/04/18 09:33:27;;;;;;;1.45;1.35;;;;;;;;;;6213092;23;20169;-88
2023/04/18 09:35:55;;;;;;;2.40;1.58;;;;;;;;;;6213979;23;20185;-88
2023/04/18 09:38:39;;;;;;;1.15;1.13;;;;;;;;;;6213433;23;20252;-90
2023/04/18 09:41:22;;;;;;;1.80;1.65;;;;;;;;;;6213582;23;20636;-88
2023/04/18 09:44:10;;;;;;;1.42;1.38;;;;;;;;;;6212910;23;20556;-89
2023/04/18 09:46:44;;;;;;;1.38;1.38;;;;;;;;;;6213538;23;20253;-88
2023/04/18 09:49:15;;;;;;;1.27;1.27;;;;;;;;;;6215867;23;20177;-89
2023/04/18 09:51:43;;;;;;;1.38;1.27;;;;;;;;;;6212940;23;20667;-88
2023/04/18 09:54:15;;;;;;;1.52;1.00;;;;;;;;;;6213245;23;20243;-89
2023/04/18 09:56:45;;;;;;;1.50;1.40;;;;;;;;;;6214532;23;20194;-88
2023/04/18 09:59:20;;;;;;;0.97;0.97;;;;;;;;;;6212066;23;20558;-88
2023/04/18 10:01:53;;;;;;;0.80;0.80;;;;;;;;;;6213973;23;20177;-90
2023/04/18 10:04:29;;;;;;;0.90;0.50;;;;;;;;;;6213197;23;20226;-88
2023/04/18 10:07:03;;;;;;;0.40;0.40;;;;;;;;;;6212649;23;20169;-88
2023/04/18 10:09:35;;;;;;;0.93;0.80;;;;;;;;;;6214238;23;20741;-89
2023/04/18 10:12:07;;;;;;;2.03;1.00;;;;;;;;;;6215574;23;20184;-89
2023/04/18 10:14:37;;;;;;;0.67;0.67;;;;;;;;;;6214274;23;20447;-88
2023/04/18 10:17:09;;;;;;;1.13;0.80;;;;;;;;;;6214263;23;20206;-89
2023/04/18 10:19:40;;;;;;;0.50;0.50;;;;;;;;;;6213269;23;20174;-89
2023/04/18 10:22:10;;;;;;;1.30;0.77;;;;;;;;;;6213528;23;20166;-87
2023/04/18 10:24:51;;;;;;;1.13;0.77;;;;;;;;;;6216248;23;20388;-88
2023/04/18 10:27:45;;;;;;;1.00;1.00;;;;;;;;;;6217598;23;20173;-90
2023/04/18 10:30:17;;;;;;;0.50;0.50;;;;;;;;;;6213479;23;20172;-87
2023/04/18 10:32:53;;;;;;;0.83;0.80;;;;;;;;;;6216469;23;20196;-88
2023/04/18 10:35:21;;;;;;;0.60;0.60;;;;;;;;;;6213868;23;20527;-88
2023/04/18 10:38:01;;;;;;;0.70;0.70;;;;;;;;;;6213162;23;20231;-89
2023/04/18 10:40:36;;;;;;;1.67;1.17;;;;;;;;;;6215604;23;20177;-88
2023/04/18 10:43:12;;;;;;;0.67;0.67;;;;;;;;;;6215649;23;20166;-88
2023/04/18 10:45:42;;;;;;;0.63;0.63;;;;;;;;;;6216698;23;20649;-87
2023/04/18 10:48:28;;;;;;;1.02;1.02;;;;;;;;;;6217319;23;20228;-86
2023/04/18 10:51:13;;;;;;;0.47;0.47;;;;;;;;;;6217146;23;20171;-88
2023/04/18 10:53:42;;;;;;;1.17;1.10;;;;;;;;;;6215454;23;20190;-88
2023/04/18 10:56:12;;;;;;;2.80;0.75;;;;;;;;;;6216530;23;20174;-88
2023/04/18 10:58:47;;;;;;;0.82;0.82;;;;;;;;;;6215180;23;20288;-88
2023/04/18 11:01:21;;;;;;;0.50;0.50;;;;;;;;;;6215661;23;20196;-88
2023/04/18 11:03:50;;;;;;;0.57;0.52;;;;;;;;;;6215840;23;20230;-89
2023/04/18 11:06:17;;;;;;;0.63;0.63;;;;;;;;;;6216947;23;20169;-88
2023/04/18 11:08:45;;;;;;;1.00;1.00;;;;;;;;;;6217648;23;20292;-88
2023/04/18 11:11:22;;;;;;;1.23;1.10;;;;;;;;;;6218944;23;20538;-88
2023/04/18 11:13:59;;;;;;;1.00;1.00;;;;;;;;;;6216365;23;20200;-89
2023/04/18 11:16:28;;;;;;;1.02;0.75;;;;;;;;;;6218961;23;20174;-88
2023/04/18 11:19:00;;;;;;;0.38;0.38;;;;;;;;;;6224669;23;20199;-88
2023/04/18 11:21:31;;;;;;;0.68;0.68;;;;;;;;;;6223417;23;20174;-90
2023/04/18 11:24:01;;;;;;;1.40;0.73;;;;;;;;;;6226069;23;20170;-87
2023/04/18 11:26:30;;;;;;;0.60;0.60;;;;;;;;;;6225496;23;20176;-87
2023/04/18 11:29:02;;;;;;;1.65;1.35;;;;;;;;;;6224862;23;20185;-89
2023/04/18 11:31:31;;;;;;;0.82;0.82;;;;;;;;;;6220321;23;20691;-90
2023/04/18 11:34:00;;;;;;;1.00;0.90;;;;;;;;;;6215049;23;20171;-89
2023/04/18 11:36:36;;;;;;;0.88;0.80;;;;;;;;;;6215983;23;20172;-88
2023/04/18 11:39:05;;;;;;;0.77;0.77;;;;;;;;;;6217706;23;20262;-89
2023/04/18 11:42:00;;;;;;;0.70;0.70;;;;;;;;;;6219101;23;20632;-88
2023/04/18 11:44:30;;;;;;;0.35;0.35;;;;;;;;;;6213810;23;20200;-89
2023/04/18 11:47:05;;;;;;;1.05;1.05;;;;;;;;;;6215704;23;20178;-89
2023/04/18 11:49:37;;;;;;;0.60;0.60;;;;;;;;;;6214612;23;20173;-89
2023/04/18 11:52:15;;;;;;;0.70;0.70;;;;;;;;;;6215051;23;20722;-89
2023/04/18 11:54:44;;;;;;;0.70;0.70;;;;;;;;;;6215405;23;20573;-88
2023/04/18 11:57:32;;;;;;;0.60;0.60;;;;;;;;;;6217389;23;20298;-86
2023/04/18 12:00:08;;;;;;;0.30;0.30;;;;;;;;;;6215685;23;20612;-90
2023/04/18 12:02:43;;;;;;;0.50;0.50;;;;;;;;;;6214716;23;20624;-89
2023/04/18 12:05:15;;;;;;;0.53;0.53;;;;;;;;;;6215364;23;20185;-88
2023/04/18 12:07:52;;;;;;;0.73;0.73;;;;;;;;;;6218619;23;20179;-89
2023/04/18 12:10:27;;;;;;;0.20;0.20;;;;;;;;;;6216807;23;20615;-88
2023/04/18 12:13:06;;;;;;;0.30;0.23;;;;;;;;;;6216724;23;20176;-93
2023/04/18 12:19:28;;;;;;;0.70;0.57;;;;;;;;;;6194215;23;20292;-91
2023/04/18 12:28:28;;;;;;;0.60;0.60;;;;;;;;;;6238723;22;20222;-92
2023/04/18 12:47:50;;;;;;;0.77;0.77;;;;;;;;;;5643020;22;12445791;-91
2023/04/18 12:51:10;;;;;;;1.60;0.70;;;;;;;;;;6133450;23;20240;-93
2023/04/18 12:54:05;;;;;;;0.53;0.53;;;;;;;;;;6124875;23;20173;-90
2023/04/18 12:59:18;;;;;;;0.07;0.07;;;;;;;;;;6133297;23;20489;-91
2023/04/18 13:02:03;;;;;;;0.30;0.30;;;;;;;;;;6132653;23;20189;-91
2023/04/18 13:04:48;;;;;;;0.30;0.30;;;;;;;;;;6132201;23;20524;-91
2023/04/18 13:07:21;;;;;;;0.43;0.43;;;;;;;;;;6132383;23;20209;-92
2023/04/18 13:10:06;;;;;;;0.27;0.27;;;;;;;;;;6131261;23;20173;-89
2023/04/18 13:13:04;;;;;;;0.30;0.30;;;;;;;;;;6132514;23;20286;-90
2023/04/18 13:15:46;;;;;;;0.30;0.30;;;;;;;;;;6134230;23;20267;-89
2023/04/18 13:18:29;;;;;;;0.13;0.13;;;;;;;;;;6131953;23;20172;-91
2023/04/18 13:21:23;;;;;;;0.77;0.77;;;;;;;;;;6133493;23;20170;-91
2023/04/18 13:24:05;;;;;;;0.40;0.40;;;;;;;;;;6134020;23;20175;-89
2023/04/18 13:26:42;;;;;;;0.10;0.10;;;;;;;;;;6132509;23;20659;-90
2023/04/18 13:29:18;;;;;;;0.87;0.40;;;;;;;;;;6138105;23;20197;-89
2023/04/18 13:31:58;;;;;;;0.43;0.43;;;;;;;;;;6138985;23;20173;-89
2023/04/18 13:34:47;;;;;;;0.40;0.40;;;;;;;;;;6140849;23;20633;-91
2023/04/18 13:37:24;;;;;;;1.20;0.40;;;;;;;;;;6132726;23;20173;-89
2023/04/18 13:39:52;;;;;;;0.20;0.20;;;;;;;;;;6133438;23;20255;-90
2023/04/18 13:42:59;;;;;;;0.80;0.07;;;;;;;;;;6134231;23;20175;-89
2023/04/18 13:45:45;;;;;;;0.20;0.20;;;;;;;;;;6109690;23;20179;-91
2023/04/18 13:48:23;;;;;;;0.10;0.10;;;;;;;;;;6129402;23;20252;-90
2023/04/18 13:50:52;;;;;;;0.20;0.20;;;;;;;;;;6129238;23;20169;-90
2023/04/18 13:53:32;;;;;;;0.17;0.17;;;;;;;;;;6129358;23;20281;-89
2023/04/18 13:56:07;;;;;;;0.10;0.10;;;;;;;;;;6127210;23;20213;-88
2023/04/18 13:58:55;;;;;;;;;;;;;;;;;;;;;
2023/04/18 14:01:58;;;;;;;0.33;0.33;;;;;;;;;;6127820;23;20522;-91
2023/04/18 14:04:25;;;;;;;0.10;0.10;;;;;;;;;;6125842;23;20224;-90
2023/04/18 14:06:57;;;;;;;0.50;0.50;;;;;;;;;;6128326;23;20195;-90
2023/04/18 14:09:27;;;;;;;0.20;0.20;;;;;;;;;;6121020;23;20193;-90
2023/04/18 14:11:58;;;;;;;0.27;0.27;;;;;;;;;;6126782;23;20197;-89
2023/04/18 14:14:27;;;;;;;0.40;0.40;;;;;;;;;;6124834;23;20609;-89
2023/04/18 14:17:08;;;;;;;0.17;0.17;;;;;;;;;;6132408;23;20209;-89
2023/04/18 14:19:44;;;;;;;3.30;0.30;;;;;;;;;;6125931;23;20214;-89
2023/04/18 14:22:13;;;;;;;0.10;0.10;;;;;;;;;;6129928;23;20248;-89
2023/04/18 14:24:42;;;;;;;0.20;0.20;;;;;;;;;;6112240;23;20247;-90
2023/04/18 14:30:05;;;;;;;0.27;0.27;;;;;;;;;;6131278;23;20348;-90
2023/04/18 14:42:10;;;;;;;0.47;0.30;;;;;;;;;;6141669;23;20220;-93
2023/04/18 14:44:43;;;;;;;0.47;0.27;;;;;;;;;;6154866;23;20208;-89
2023/04/18 14:47:11;;;;;;;0.10;0.10;;;;;;;;;;6153288;23;20711;-87
2023/04/18 15:06:47;;;;;;;0.00;0.00;;;;;;;;;;6161922;23;20228;-96
2023/04/18 15:09:28;;;;;;;0.10;0.10;;;;;;;;;;6162635;23;20404;-94
2023/04/18 15:12:09;;;;;;;0.43;0.43;;;;;;;;;;6162385;23;20189;-94
2023/04/18 15:23:59;;;;;;;0.27;0.27;;;;;;;;;;6095745;23;20249;-89
2023/04/18 15:26:42;;;;;;;0.00;0.00;;;;;;;;;;6046496;23;20193;-89
2023/04/18 15:29:38;;;;;;;0.10;0.10;;;;;;;;;;6121764;23;20193;-89
2023/04/18 15:32:31;;;;;;;1.33;0.40;;;;;;;;;;6111324;23;20220;-89
2023/04/18 15:35:18;;;;;;;0.43;0.43;;;;;;;;;;6120404;23;20197;-88
2023/04/18 15:41:20;;;;;;;0.13;0.13;;;;;;;;;;6128419;23;20197;-96
2023/04/18 15:49:47;;;;;;;0.00;0.00;;;;;;;;;;6123485;23;20197;-89
2023/04/18 15:52:34;;;;;;;0.10;0.10;;;;;;;;;;6123280;23;20189;-88
2023/04/18 15:55:07;;;;;;;0.20;0.20;;;;;;;;;;6123968;23;20193;-89
2023/04/18 15:57:55;;;;;;;0.10;0.10;;;;;;;;;;6131141;23;20268;-89
2023/04/18 16:00:38;;;;;;;0.20;0.20;;;;;;;;;;6148127;23;20269;-88
2023/04/18 16:03:34;;;;;;;0.60;0.30;;;;;;;;;;6147684;23;20201;-89
2023/04/18 16:06:14;;;;;;;0.60;0.07;;;;;;;;;;6135043;23;20209;-89
2023/04/18 16:08:43;;;;;;;0.20;0.20;;;;;;;;;;6136190;23;20248;-89
2023/04/18 16:14:56;;;;;;;;;;;;;;;;;;;;;
2023/04/18 16:17:54;;;;;;;;;;;;;;;;;;;;;
2023/04/18 16:26:49;;;;;;;0.37;0.37;;;;;;;;;;5949541;23;20206;-90
2023/04/18 16:33:04;;;;;;;0.40;0.40;;;;;;;;;;5896803;24;20556;-90
2023/04/18 16:38:56;;;;;;;;;;;;;;;;;;;;;
2023/04/18 16:41:43;;;;;;;0.23;0.23;;;;;;;;;;6093644;23;20607;-89
2023/04/18 16:52:32;;;;;;;0.20;0.20;;;;;;;;;;6148614;23;20200;-90
2023/04/18 16:55:14;;;;;;;0.27;0.27;;;;;;;;;;6152717;23;20196;-90
2023/04/18 16:57:53;;;;;;;0.20;0.20;;;;;;;;;;6150033;23;20212;-89
2023/04/18 17:00:37;;;;;;;0.37;0.37;;;;;;;;;;6152040;23;20196;-88
2023/04/18 17:03:26;;;;;;;0.20;0.20;;;;;;;;;;6151560;23;20195;-89
2023/04/18 17:06:01;;;;;;;1.87;1.57;;;;;;;;;;6152525;23;20670;-90
2023/04/18 17:39:19;;;;;;;;;;;;;;;;;;;;;
2023/04/18 19:13:14;;;;;;;;;;;;;;;;;;;;;
2023/04/18 19:15:53;;;;;;;0.30;0.30;;;;;;;;;;6117640;23;20292;-90
2023/04/18 19:18:27;;;;;;;0.30;0.30;;;;;;;;;;6130126;23;20287;-90
2023/04/18 19:21:03;;;;;;;0.20;0.20;;;;;;;;;;6138268;23;20229;-89
2023/04/18 19:32:36;;;;;;;0.47;0.47;;;;;;;;;;6034429;23;20237;-90
2023/04/18 19:48:08;;;;;;;0.57;0.53;;;;;;;;;;6024436;23;20215;-95
2023/04/18 20:27:34;;;;;;;0.53;0.53;;;;;;;;;;6133882;23;20244;-95
2023/04/18 20:36:30;;;;;;;0.80;0.80;;;;;;;;;;6103047;23;20197;-94
2023/04/18 20:39:31;;;;;;;2.47;0.70;;;;;;;;;;6131595;23;20224;-95
2023/04/18 20:45:30;;;;;;;0.40;0.40;;;;;;;;;;6100319;23;20587;-95
2023/04/18 20:54:39;;;;;;;0.93;0.93;;;;;;;;;;6126116;23;20823;-96
2023/04/18 21:06:08;;;;;;;0.20;0.20;;;;;;;;;;6133380;23;20201;-95
2023/04/18 21:15:21;;;;;;;;;;;;;;;;;;;;;
2023/04/18 21:18:07;;;;;;;0.73;0.60;;;;;;;;;;5094319;28;20233;-95
2023/04/18 21:20:54;;;;;;;0.60;0.60;;;;;;;;;;5094623;28;20275;-95
2023/04/18 21:23:50;;;;;;;0.60;0.60;;;;;;;;;;5095209;28;20243;-93
2023/04/18 21:26:37;;;;;;;0.70;0.70;;;;;;;;;;5080301;28;20235;-95
2023/04/18 21:38:40;;;;;;;2.67;0.20;;;;;;;;;;5099252;22;20266;-94
2023/04/18 21:41:24;;;;;;;1.20;0.20;;;;;;;;;;5075476;28;20235;-94
2023/04/18 21:44:11;;;;;;;0.40;0.20;;;;;;;;;;5076257;28;20232;-94
2023/04/18 21:46:50;;;;;;;0.50;0.50;;;;;;;;;;5078651;28;20227;-92
2023/04/18 21:49:29;;;;;;;0.13;0.13;;;;;;;;;;5069013;28;20314;-93
2023/04/18 21:52:21;;;;;;;0.00;0.00;;;;;;;;;;5086499;28;20226;-94
2023/04/18 21:55:16;;;;;;;1.33;0.70;;;;;;;;;;5103116;28;20277;-95
2023/04/18 21:57:54;;;;;;;0.50;0.50;;;;;;;;;;5091448;28;20207;-94
2023/04/18 22:00:29;;;;;;;0.13;0.13;;;;;;;;;;5090280;28;20214;-92
2023/04/18 22:03:18;;;;;;;;;;;;;;;;;;;;;
2023/04/18 22:09:07;;;;;;;;;;;;;;;;;;;;;
2023/04/18 22:11:56;;;;;;;0.50;0.50;;;;;;;;;;5071875;28;20237;-92
2023/04/18 22:14:47;;;;;;;0.87;0.53;;;;;;;;;;5076568;28;20199;-95
2023/04/18 22:17:20;;;;;;;0.43;0.43;;;;;;;;;;5058328;28;20195;-94
2023/04/18 22:19:58;;;;;;;0.20;0.20;;;;;;;;;;5075453;28;20207;-94
2023/04/18 22:22:42;;;;;;;0.30;0.30;;;;;;;;;;5068641;28;20643;-94
2023/04/18 22:25:19;;;;;;;0.53;0.33;;;;;;;;;;5063580;28;20234;-95
2023/04/18 22:31:02;;;;;;;0.77;0.77;;;;;;;;;;5064980;28;20231;-93
2023/04/18 22:33:46;;;;;;;0.40;0.40;;;;;;;;;;5073491;28;20187;-91
2023/04/18 22:36:17;;;;;;;0.40;0.33;;;;;;;;;;5075424;28;20195;-94
2023/04/18 22:38:49;;;;;;;0.50;0.10;;;;;;;;;;5072605;28;20243;-93
2023/04/18 22:41:27;;;;;;;0.30;0.30;;;;;;;;;;5072714;28;20215;-95
2023/04/18 22:44:06;;;;;;;0.20;0.20;;;;;;;;;;5072127;28;20187;-95
2023/04/18 22:46:57;;;;;;;0.20;0.20;;;;;;;;;;5067688;28;20195;-93
2023/04/18 22:49:40;;;;;;;0.00;0.00;;;;;;;;;;5070460;28;20191;-92
2023/04/18 22:52:11;;;;;;;0.10;0.10;;;;;;;;;;5074909;28;20215;-92
2023/04/18 22:54:44;;;;;;;0.20;0.20;;;;;;;;;;5075426;28;20195;-92
2023/04/18 22:57:23;;;;;;;0.20;0.20;;;;;;;;;;5075291;28;20196;-93
2023/04/18 23:00:01;;;;;;;1.27;0.33;;;;;;;;;;5075108;28;20187;-92
2023/04/18 23:02:50;;;;;;;0.13;0.13;;;;;;;;;;5075569;28;20199;-92
2023/04/18 23:05:31;;;;;;;0.37;0.37;;;;;;;;;;5075176;28;20187;-93
2023/04/18 23:08:19;;;;;;;0.13;0.13;;;;;;;;;;5074588;28;20251;-93
2023/04/18 23:10:54;;;;;;;0.17;0.17;;;;;;;;;;5070706;28;20231;-93
2023/04/18 23:13:31;;;;;;;0.17;0.17;;;;;;;;;;5063445;28;20210;-94
2023/04/18 23:16:04;;;;;;;0.47;0.47;;;;;;;;;;5063559;28;20259;-94
2023/04/18 23:18:50;;;;;;;0.20;0.20;;;;;;;;;;5061461;28;20203;-92
2023/04/18 23:21:26;;;;;;;0.17;0.17;;;;;;;;;;5062747;28;20197;-93
2023/04/18 23:24:09;;;;;;;0.00;0.00;;;;;;;;;;5062023;28;20213;-94
2023/04/18 23:26:58;;;;;;;0.30;0.30;;;;;;;;;;5060844;28;20300;-93
2023/04/18 23:29:56;;;;;;;0.37;0.30;;;;;;;;;;5061659;28;20278;-95
2023/04/18 23:32:29;;;;;;;0.60;0.60;;;;;;;;;;5060887;28;20233;-92
2023/04/18 23:35:24;;;;;;;0.17;0.17;;;;;;;;;;5063102;28;20207;-94
2023/04/18 23:37:59;;;;;;;1.50;0.43;;;;;;;;;;5059899;28;20273;-94
2023/04/18 23:40:31;;;;;;;0.20;0.13;;;;;;;;;;5062742;28;20230;-93
2023/04/18 23:43:00;;;;;;;0.20;0.20;;;;;;;;;;5064383;28;20272;-94
2023/04/18 23:45:30;;;;;;;0.00;0.00;;;;;;;;;;5063943;28;20199;-92
2023/04/18 23:48:01;;;;;;;0.67;0.40;;;;;;;;;;5066444;28;20251;-93
2023/04/18 23:50:54;;;;;;;0.00;0.00;;;;;;;;;;5068906;28;20278;-92
2023/04/18 23:53:40;;;;;;;0.10;0.10;;;;;;;;;;5067850;28;20233;-93
2023/04/18 23:56:12;;;;;;;0.40;0.40;;;;;;;;;;5075221;28;20238;-94
